createdAt,value
2022-11-23T00:01:34.312Z,2.33
2022-11-23T00:04:03.545Z,2.20
2022-11-23T00:06:32.765Z,2.03
2022-11-23T00:09:00.355Z,2.17
2022-11-23T00:11:28.588Z,2.63
2022-11-23T00:13:56.363Z,2.35
2022-11-23T00:16:25.352Z,2.20
2022-11-23T00:18:54.194Z,2.35
2022-11-23T00:21:22.351Z,2.30
2022-11-23T00:23:50.279Z,2.50
2022-11-23T00:26:18.532Z,2.20
2022-11-23T00:28:46.173Z,2.45
2022-11-23T00:31:15.298Z,2.28
2022-11-23T00:33:43.857Z,2.20
2022-11-23T00:36:15.298Z,2.42
2022-11-23T00:38:44.004Z,2.58
2022-11-23T00:41:17.002Z,2.15
2022-11-23T00:43:44.891Z,2.45
2022-11-23T00:46:15.331Z,2.20
2022-11-23T00:48:46.505Z,2.58
2022-11-23T00:51:16.030Z,2.70
2022-11-23T00:53:43.649Z,2.28
2022-11-23T00:56:12.386Z,2.20
2022-11-23T00:58:40.168Z,2.67
2022-11-23T01:01:09.513Z,1.95
2022-11-23T01:03:38.242Z,2.10
2022-11-23T01:06:06.920Z,2.10
2022-11-23T01:08:34.490Z,1.85
2022-11-23T01:11:03.470Z,2.30
2022-11-23T01:13:31.421Z,2.30
2022-11-23T01:15:59.887Z,2.10
2022-11-23T01:18:27.665Z,2.20
2022-11-23T01:20:55.526Z,2.08
2022-11-23T01:23:23.049Z,1.80
2022-11-23T01:25:54.364Z,1.98
2022-11-23T01:28:25.217Z,1.60
2022-11-23T01:30:52.823Z,1.70
2022-11-23T01:33:20.394Z,2.28
2022-11-23T01:35:47.970Z,1.83
2022-11-23T01:38:18.381Z,2.00
2022-11-23T01:40:46.214Z,1.70
2022-11-23T01:43:18.381Z,2.05
2022-11-23T01:45:57.434Z,1.90
2022-11-23T01:48:29.365Z,1.92
2022-11-23T01:50:57.871Z,1.70
2022-11-23T01:53:25.852Z,1.92
2022-11-23T01:55:55.171Z,1.55
2022-11-23T01:58:24.126Z,1.70
2022-11-23T02:00:51.869Z,2.10
2022-11-23T02:03:19.919Z,1.58
2022-11-23T02:05:49.198Z,1.60
2022-11-23T02:08:17.913Z,1.58
2022-11-23T02:10:45.953Z,1.80
2022-11-23T02:13:15.193Z,1.40
2022-11-23T02:15:42.756Z,1.90
2022-11-23T02:18:14.095Z,2.05
2022-11-23T02:20:41.962Z,1.30
2022-11-23T02:23:24.699Z,1.42
2022-11-23T02:25:57.235Z,1.52
2022-11-23T02:28:27.493Z,1.40
2022-11-23T02:30:56.050Z,1.60
2022-11-23T02:33:25.397Z,1.40
2022-11-23T02:35:54.743Z,1.42
2022-11-23T02:38:25.588Z,1.60
2022-11-23T02:40:53.204Z,1.40
2022-11-23T02:43:22.950Z,1.50
2022-11-23T02:46:03.916Z,1.50
2022-11-23T02:48:31.514Z,1.50
2022-11-23T02:50:59.178Z,1.50
2022-11-23T02:53:26.758Z,2.78
2022-11-23T02:55:55.268Z,1.58
2022-11-23T02:58:24.838Z,1.38
2022-11-23T03:00:52.461Z,1.42
2022-11-23T03:03:20.621Z,1.42
2022-11-23T03:05:48.174Z,1.10
2022-11-23T03:08:15.902Z,1.60
2022-11-23T03:10:43.586Z,1.13
2022-11-23T03:13:12.159Z,1.30
2022-11-23T03:15:41.185Z,1.20
2022-11-23T03:18:10.242Z,1.50
2022-11-23T03:20:39.330Z,1.40
2022-11-23T03:23:06.900Z,1.63
2022-11-23T03:25:34.855Z,1.80
2022-11-23T03:28:04.399Z,1.50
2022-11-23T03:30:33.721Z,1.50
2022-11-23T03:33:02.882Z,1.20
2022-11-23T03:35:30.878Z,1.20
2022-11-23T03:38:18.158Z,1.48
2022-11-23T03:40:46.256Z,1.75
2022-11-23T03:43:21.299Z,1.50
2022-11-23T03:45:49.090Z,1.60
2022-11-23T03:48:16.870Z,1.48
2022-11-23T03:50:47.475Z,1.30
2022-11-23T03:53:15.885Z,1.42
2022-11-23T03:55:46.517Z,1.30
2022-11-23T03:58:15.128Z,1.70
2022-11-23T04:00:42.980Z,1.70
2022-11-23T04:03:13.498Z,1.30
2022-11-23T04:06:19.560Z,1.40
2022-11-23T04:09:02.287Z,1.83
2022-11-23T04:11:48.741Z,1.38
2022-11-23T04:14:16.541Z,1.23
2022-11-23T04:16:44.265Z,1.08
2022-11-23T04:19:12.097Z,1.42
2022-11-23T04:21:39.921Z,1.42
2022-11-23T04:24:08.676Z,1.30
2022-11-23T04:26:37.493Z,1.27
2022-11-23T04:29:05.102Z,1.40
2022-11-23T04:31:34.858Z,1.45
2022-11-23T04:34:10.457Z,1.20
2022-11-23T04:36:39.277Z,1.50
2022-11-23T04:39:08.674Z,1.10
2022-11-23T04:41:44.460Z,1.50
2022-11-23T04:44:12.157Z,1.25
2022-11-23T04:46:41.590Z,1.40
2022-11-23T04:49:12.714Z,1.00
2022-11-23T04:51:40.278Z,1.10
2022-11-23T04:54:09.454Z,1.50
2022-11-23T04:56:44.863Z,1.05
2022-11-23T04:59:13.396Z,1.55
2022-11-23T05:01:40.940Z,1.08
2022-11-23T05:04:26.958Z,1.20
2022-11-23T05:06:54.588Z,1.70
2022-11-23T05:09:23.639Z,1.00
2022-11-23T05:12:11.111Z,1.10
2022-11-23T05:14:38.662Z,1.20
2022-11-23T05:17:06.674Z,1.35
2022-11-23T05:19:35.235Z,1.33
2022-11-23T05:22:03.563Z,1.10
2022-11-23T05:24:34.215Z,1.10
2022-11-23T05:27:09.623Z,5.13
2022-11-23T05:29:38.087Z,1.60
2022-11-23T05:32:07.337Z,1.02
2022-11-23T05:34:34.914Z,1.30
2022-11-23T05:37:04.412Z,1.00
2022-11-23T05:39:32.713Z,1.10
2022-11-23T05:42:01.625Z,1.20
2022-11-23T05:44:37.456Z,1.40
2022-11-23T05:47:07.610Z,0.95
2022-11-23T05:49:37.150Z,1.08
2022-11-23T05:52:06.161Z,1.10
2022-11-23T05:54:34.371Z,1.45
2022-11-23T05:57:07.107Z,1.58
2022-11-23T05:59:37.826Z,1.63
2022-11-23T06:02:05.831Z,1.70
2022-11-23T06:04:36.237Z,1.40
2022-11-23T06:07:06.331Z,1.25
2022-11-23T06:09:52.122Z,1.25
2022-11-23T06:12:19.656Z,1.50
2022-11-23T06:14:47.289Z,1.33
2022-11-23T06:17:17.505Z,1.58
2022-11-23T06:19:48.702Z,1.77
2022-11-23T06:22:16.869Z,1.20
2022-11-23T06:24:58.770Z,1.38
2022-11-23T06:27:59.358Z,1.50
2022-11-23T06:30:31.931Z,1.52
2022-11-23T06:33:05.194Z,1.65
2022-11-23T06:35:38.790Z,1.25
2022-11-23T06:38:06.531Z,1.45
2022-11-23T06:40:34.780Z,1.50
2022-11-23T06:43:03.480Z,1.60
2022-11-23T06:45:43.878Z,1.90
2022-11-23T06:48:15.159Z,1.50
2022-11-23T06:50:46.792Z,1.65
2022-11-23T06:53:19.760Z,1.55
2022-11-23T06:55:52.006Z,1.60
2022-11-23T06:58:21.342Z,1.70
2022-11-23T07:00:48.994Z,1.80
2022-11-23T07:03:37.670Z,2.30
2022-11-23T07:06:20.508Z,2.10
2022-11-23T07:08:49.709Z,1.83
2022-11-23T07:11:28.402Z,1.80
2022-11-23T07:13:56.036Z,1.85
2022-11-23T07:16:26.977Z,2.47
2022-11-23T07:18:54.565Z,2.05
2022-11-23T07:21:22.216Z,2.03
2022-11-23T07:23:50.790Z,2.20
2022-11-23T07:26:18.685Z,1.98
2022-11-23T07:28:46.238Z,2.13
2022-11-23T07:31:16.008Z,2.15
2022-11-23T07:33:47.062Z,2.10
2022-11-23T07:36:15.029Z,2.25
2022-11-23T07:38:44.808Z,2.25
2022-11-23T07:41:14.614Z,2.08
2022-11-23T07:44:02.641Z,1.70
2022-11-23T07:46:30.263Z,2.10
2022-11-23T07:49:02.117Z,2.08
2022-11-23T07:53:57.472Z,2.42
2022-11-23T07:56:25.054Z,2.60
2022-11-23T07:58:54.281Z,2.00
2022-11-23T08:01:22.033Z,2.42
2022-11-23T08:03:50.016Z,2.28
2022-11-23T08:06:17.867Z,2.50
2022-11-23T08:08:45.452Z,2.40
2022-11-23T08:11:18.593Z,2.60
2022-11-23T08:13:46.401Z,2.25
2022-11-23T08:16:13.953Z,2.20
2022-11-23T08:18:41.569Z,2.22
2022-11-23T08:21:09.171Z,2.25
2022-11-23T08:23:36.930Z,2.00
2022-11-23T08:26:07.824Z,2.03
2022-11-23T08:28:39.947Z,2.10
2022-11-23T08:31:11.458Z,1.80
2022-11-23T08:33:39.330Z,2.17
2022-11-23T08:36:07.638Z,2.33
2022-11-23T08:38:35.601Z,2.08
2022-11-23T08:41:03.822Z,2.15
2022-11-23T08:43:31.380Z,2.10
2022-11-23T08:46:04.005Z,2.22
2022-11-23T08:48:34.405Z,2.33
2022-11-23T08:51:02.110Z,2.08
2022-11-23T08:53:29.649Z,1.95
2022-11-23T08:55:57.280Z,2.05
2022-11-23T08:58:24.818Z,2.38
2022-11-23T09:00:52.446Z,1.90
2022-11-23T09:03:20.237Z,1.80
2022-11-23T09:05:47.791Z,2.03
2022-11-23T09:08:16.431Z,2.35
2022-11-23T09:10:44.027Z,2.15
2022-11-23T09:13:11.613Z,1.50
2022-11-23T09:15:39.255Z,1.55
2022-11-23T09:18:06.831Z,1.30
2022-11-23T09:20:34.815Z,1.35
2022-11-23T09:23:02.598Z,1.60
2022-11-23T09:25:30.185Z,1.52
2022-11-23T09:28:00.938Z,1.40
2022-11-23T09:30:28.777Z,1.50
2022-11-23T09:32:57.897Z,1.33
2022-11-23T09:35:25.614Z,1.40
2022-11-23T09:37:59.460Z,1.30
2022-11-23T09:40:30.142Z,1.38
2022-11-23T09:43:03.803Z,1.65
2022-11-23T09:45:36.888Z,1.20
2022-11-23T09:48:15.646Z,0.82
2022-11-23T09:50:46.222Z,1.27
2022-11-23T09:53:17.017Z,1.40
2022-11-23T09:55:45.580Z,1.70
2022-11-23T09:58:18.541Z,1.20
2022-11-23T10:01:02.948Z,1.60
2022-11-23T10:03:33.335Z,1.08
2022-11-23T10:06:05.907Z,1.13
2022-11-23T10:08:40.199Z,1.10
2022-11-23T10:11:21.684Z,1.13
2022-11-23T10:14:01.798Z,0.90
2022-11-23T10:16:44.862Z,0.93
2022-11-23T10:19:15.297Z,1.52
2022-11-23T10:21:45.867Z,0.98
2022-11-23T10:24:21.738Z,0.95
2022-11-23T10:26:51.649Z,0.90
2022-11-23T10:29:22.325Z,1.00
2022-11-23T10:31:55.600Z,1.00
2022-11-23T10:34:31.021Z,0.95
2022-11-23T10:36:58.917Z,0.90
2022-11-23T10:39:27.506Z,1.73
2022-11-23T10:41:57.768Z,1.15
2022-11-23T10:44:31.542Z,1.20
2022-11-23T10:47:00.135Z,1.40
2022-11-23T10:49:29.613Z,1.00
2022-11-23T10:51:57.290Z,1.77
2022-11-23T10:54:36.999Z,1.17
2022-11-23T10:57:22.063Z,1.10
2022-11-23T11:00:05.584Z,1.00
2022-11-23T11:02:41.232Z,1.10
2022-11-23T11:06:06.841Z,1.38
2022-11-23T11:08:24.719Z,1.30
2022-11-23T11:11:07.365Z,1.30
2022-11-23T11:13:43.074Z,1.17
2022-11-23T11:16:20.115Z,1.25
2022-11-23T11:18:48.239Z,1.20
2022-11-23T11:21:20.533Z,1.00
2022-11-23T11:23:55.575Z,1.20
2022-11-23T11:26:25.629Z,0.93
2022-11-23T11:28:57.792Z,0.68
2022-11-23T11:31:36.564Z,1.05
2022-11-23T11:34:07.435Z,1.13
2022-11-23T11:36:39.244Z,1.23
2022-11-23T11:39:19.607Z,1.60
2022-11-23T11:41:49.158Z,1.20
2022-11-23T11:44:19.456Z,1.08
2022-11-23T11:46:50.078Z,0.80
2022-11-23T11:49:20.193Z,1.05
2022-11-23T11:51:55.423Z,0.95
2022-11-23T11:54:37.290Z,1.00
2022-11-23T11:57:13.577Z,1.10
2022-11-23T11:59:45.934Z,1.20
2022-11-23T12:02:19.870Z,0.80
2022-11-23T12:04:54.291Z,1.10
2022-11-23T12:07:50.300Z,0.95
2022-11-23T12:10:28.012Z,1.08
2022-11-23T12:12:59.169Z,1.13
2022-11-23T12:15:49.084Z,1.00
2022-11-23T12:18:36.648Z,0.82
2022-11-23T12:21:06.784Z,1.05
2022-11-23T12:23:43.957Z,1.00
2022-11-23T12:26:14.343Z,1.10
2022-11-23T12:29:00.742Z,0.90
2022-11-23T12:31:39.388Z,0.90
2022-11-23T12:34:17.267Z,1.00
2022-11-23T12:37:03.246Z,1.00
2022-11-23T12:39:49.740Z,0.80
2022-11-23T12:42:24.738Z,0.70
2022-11-23T12:45:11.477Z,0.80
2022-11-23T12:47:42.188Z,0.88
2022-11-23T12:50:18.968Z,0.82
2022-11-23T12:52:46.594Z,1.10
2022-11-23T12:55:32.759Z,0.90
2022-11-23T12:58:12.509Z,0.75
2022-11-23T13:00:47.859Z,0.63
2022-11-23T13:03:37.092Z,0.93
2022-11-23T13:06:05.049Z,1.10
2022-11-23T13:08:41.681Z,0.68
2022-11-23T13:11:12.481Z,0.80
2022-11-23T13:13:43.810Z,0.65
2022-11-23T13:16:30.517Z,0.90
2022-11-23T13:19:05.081Z,0.90
2022-11-23T13:21:43.689Z,0.88
2022-11-23T13:24:27.420Z,0.55
2022-11-23T13:27:13.894Z,0.88
2022-11-23T13:29:58.410Z,1.08
2022-11-23T13:32:35.541Z,0.93
2022-11-23T13:35:03.673Z,0.70
2022-11-23T13:37:31.304Z,0.70
2022-11-23T13:40:00.174Z,0.80
2022-11-23T13:42:28.558Z,0.90
2022-11-23T13:45:15.210Z,0.90
2022-11-23T13:47:44.059Z,0.90
2022-11-23T13:50:19.037Z,1.15
2022-11-23T13:52:50.464Z,0.77
2022-11-23T13:55:44.373Z,0.80
2022-11-23T13:58:24.201Z,0.80
2022-11-23T14:00:53.226Z,0.90
2022-11-23T14:03:40.480Z,0.80
2022-11-23T14:06:22.523Z,0.85
2022-11-23T14:09:09.130Z,0.98
2022-11-23T14:11:40.691Z,1.20
2022-11-23T14:14:16.499Z,0.90
2022-11-23T14:16:57.055Z,0.80
2022-11-23T14:19:33.200Z,0.77
2022-11-23T14:22:17.186Z,0.52
2022-11-23T14:25:18.221Z,0.80
2022-11-23T14:27:51.747Z,0.80
2022-11-23T14:30:23.092Z,1.00
2022-11-23T14:32:56.568Z,0.80
2022-11-23T14:35:33.036Z,0.80
2022-11-23T14:38:06.653Z,1.08
2022-11-23T14:40:49.437Z,0.80
2022-11-23T14:43:19.341Z,1.20
2022-11-23T14:45:47.564Z,1.42
2022-11-23T14:48:22.415Z,1.58
2022-11-23T14:51:16.248Z,0.88
2022-11-23T14:53:48.933Z,1.10
2022-11-23T14:56:24.089Z,1.30
2022-11-23T14:58:51.967Z,1.20
2022-11-23T15:01:21.666Z,0.90
2022-11-23T15:04:07.771Z,1.30
2022-11-23T15:06:39.639Z,1.08
2022-11-23T15:09:17.733Z,1.73
2022-11-23T15:11:45.335Z,1.38
2022-11-23T15:14:20.335Z,1.48
2022-11-23T15:16:49.288Z,1.23
2022-11-23T15:19:26.158Z,1.60
2022-11-23T15:21:53.777Z,1.35
2022-11-23T15:24:22.197Z,1.63
2022-11-23T15:26:49.830Z,1.30
2022-11-23T15:29:34.918Z,1.55
2022-11-23T15:34:52.031Z,1.30
2022-11-23T15:37:19.766Z,1.30
2022-11-23T15:39:47.760Z,1.40
2022-11-23T15:42:18.064Z,1.58
2022-11-23T15:44:51.405Z,1.38
2022-11-23T15:47:23.587Z,1.50
2022-11-23T15:49:51.643Z,1.60
2022-11-23T15:52:20.406Z,1.80
2022-11-23T15:54:48.716Z,1.90
2022-11-23T15:57:19.942Z,1.58
2022-11-23T15:59:49.453Z,1.92
2022-11-23T16:02:30.815Z,1.90
2022-11-23T16:05:13.796Z,1.80
2022-11-23T16:07:51.402Z,1.98
2022-11-23T16:10:21.130Z,1.65
2022-11-23T16:12:50.214Z,1.83
2022-11-23T16:15:32.515Z,1.73
2022-11-23T16:18:00.736Z,1.95
2022-11-23T16:20:29.408Z,2.65
2022-11-23T16:22:57.208Z,2.72
2022-11-23T16:25:27.890Z,2.90
2022-11-23T16:28:02.563Z,2.50
2022-11-23T16:30:38.011Z,2.92
2022-11-23T16:33:05.952Z,2.40
2022-11-23T16:35:33.514Z,2.22
2022-11-23T16:38:01.051Z,2.40
2022-11-23T16:40:28.582Z,2.33
2022-11-23T16:42:56.465Z,2.03
2022-11-23T16:45:24.375Z,2.08
2022-11-23T16:47:56.235Z,1.98
2022-11-23T16:52:51.370Z,1.98
2022-11-23T16:55:19.010Z,2.00
2022-11-23T16:57:47.152Z,2.00
2022-11-23T17:00:16.435Z,1.80
2022-11-23T17:02:44.204Z,2.25
2022-11-23T17:05:16.163Z,2.50
2022-11-23T17:07:43.933Z,2.42
2022-11-23T17:10:12.611Z,2.58
2022-11-23T17:12:40.909Z,2.67
2022-11-23T17:15:08.848Z,2.67
2022-11-23T17:17:36.409Z,2.58
2022-11-23T17:20:04.854Z,2.78
2022-11-23T17:22:32.650Z,2.78
2022-11-23T17:25:00.238Z,2.60
2022-11-23T17:27:27.874Z,2.58
2022-11-23T17:29:59.171Z,3.00
2022-11-23T17:32:26.908Z,3.10
2022-11-23T17:34:54.842Z,2.97
2022-11-23T17:37:24.021Z,3.05
2022-11-23T17:39:51.867Z,3.13
2022-11-23T17:42:19.600Z,3.20
2022-11-23T17:44:47.732Z,3.25
2022-11-23T17:47:26.524Z,2.67
2022-11-23T17:49:54.318Z,2.88
2022-11-23T17:52:22.294Z,3.08
2022-11-23T17:54:50.563Z,2.83
2022-11-23T17:57:25.612Z,2.83
2022-11-23T17:59:54.170Z,2.83
2022-11-23T18:02:22.256Z,3.08
2022-11-23T18:04:49.928Z,3.00
2022-11-23T18:07:18.589Z,2.83
2022-11-23T18:09:46.630Z,2.85
2022-11-23T18:12:14.439Z,3.45
2022-11-23T18:14:42.148Z,3.50
2022-11-23T18:17:09.942Z,3.22
2022-11-23T18:19:37.523Z,3.38
2022-11-23T18:22:05.086Z,3.65
2022-11-23T18:24:32.637Z,3.42
2022-11-23T18:27:00.660Z,3.70
2022-11-23T18:29:28.462Z,3.30
2022-11-23T18:31:56.292Z,3.67
2022-11-23T18:34:24.246Z,3.50
2022-11-23T18:36:52.137Z,3.70
2022-11-23T18:39:19.818Z,3.38
2022-11-23T18:41:47.635Z,3.95
2022-11-23T18:44:15.527Z,4.57
2022-11-23T18:46:45.582Z,4.45
2022-11-23T18:49:14.624Z,4.85
2022-11-23T18:51:42.909Z,4.63
2022-11-23T18:54:10.910Z,3.72
2022-11-23T18:56:39.108Z,3.33
2022-11-23T18:59:15.637Z,3.20
2022-11-23T19:01:57.540Z,3.58
2022-11-23T19:04:25.166Z,3.20
2022-11-23T19:06:53.145Z,3.03
2022-11-23T19:09:21.044Z,3.17
2022-11-23T19:11:48.739Z,3.05
2022-11-23T19:14:16.698Z,3.25
2022-11-23T19:16:44.538Z,3.05
2022-11-23T19:19:12.585Z,3.50
2022-11-23T19:21:40.352Z,3.20
2022-11-23T19:24:09.806Z,2.70
2022-11-23T19:26:37.915Z,2.65
2022-11-23T19:29:05.548Z,2.67
2022-11-23T19:31:33.911Z,3.38
2022-11-23T19:34:02.674Z,3.28
2022-11-23T19:36:33.116Z,3.38
2022-11-23T19:39:00.822Z,3.03
2022-11-23T19:41:30.913Z,3.35
2022-11-23T19:43:59.813Z,3.40
2022-11-23T19:46:28.366Z,2.70
2022-11-23T19:48:57.303Z,2.83
2022-11-23T19:51:25.743Z,2.95
2022-11-23T19:53:54.577Z,2.50
2022-11-23T19:56:23.955Z,2.28
2022-11-23T19:58:55.152Z,2.22
2022-11-23T20:01:24.172Z,2.00
2022-11-23T20:03:53.499Z,1.92
2022-11-23T20:06:26.765Z,1.90
2022-11-23T20:08:55.362Z,1.90
2022-11-23T20:11:23.370Z,1.80
2022-11-23T20:13:50.945Z,1.92
2022-11-23T20:16:19.791Z,1.92
2022-11-23T20:18:50.696Z,2.20
2022-11-23T20:21:18.970Z,2.03
2022-11-23T20:23:47.403Z,1.90
2022-11-23T20:26:15.980Z,1.67
2022-11-23T20:28:43.577Z,2.35
2022-11-23T20:31:20.430Z,1.95
2022-11-23T20:33:51.877Z,1.70
2022-11-23T20:36:20.608Z,2.30
2022-11-23T20:38:48.700Z,1.42
2022-11-23T20:41:16.315Z,1.67
2022-11-23T20:43:44.554Z,1.50
2022-11-23T20:46:12.403Z,1.85
2022-11-23T20:48:40.642Z,1.85
2022-11-23T20:51:10.752Z,1.70
2022-11-23T20:53:38.627Z,1.90
2022-11-23T20:56:07.728Z,2.20
2022-11-23T20:58:35.515Z,2.35
2022-11-23T21:01:04.447Z,1.92
2022-11-23T21:03:32.679Z,1.67
2022-11-23T21:06:06.817Z,1.90
2022-11-23T21:08:35.361Z,1.80
2022-11-23T21:11:41.038Z,1.63
2022-11-23T21:14:17.225Z,1.73
2022-11-23T21:16:53.090Z,1.77
2022-11-23T21:19:21.919Z,1.88
2022-11-23T21:21:49.580Z,1.90
2022-11-23T21:24:17.127Z,1.73
2022-11-23T21:26:44.707Z,1.70
2022-11-23T21:29:12.687Z,1.52
2022-11-23T21:31:41.769Z,1.80
2022-11-23T21:34:12.253Z,1.70
2022-11-23T21:36:40.056Z,1.83
2022-11-23T21:39:08.852Z,1.90
2022-11-23T21:41:37.245Z,2.35
2022-11-23T21:44:05.735Z,2.03
2022-11-23T21:46:33.676Z,2.00
2022-11-23T21:49:01.663Z,2.25
2022-11-23T21:51:30.379Z,2.33
2022-11-23T21:53:59.000Z,2.13
2022-11-23T21:56:27.011Z,2.20
2022-11-23T21:58:55.223Z,2.08
2022-11-23T22:01:27.732Z,1.90
2022-11-23T22:03:56.410Z,1.92
2022-11-23T22:06:24.022Z,2.40
2022-11-23T22:08:55.172Z,2.28
2022-11-23T22:11:24.092Z,2.10
2022-11-23T22:13:58.647Z,2.33
2022-11-23T22:16:27.480Z,2.30
2022-11-23T22:18:56.126Z,2.28
2022-11-23T22:21:25.006Z,2.70
2022-11-23T22:23:52.682Z,2.50
2022-11-23T22:26:20.969Z,2.47
2022-11-23T22:28:49.549Z,2.28
2022-11-23T22:31:21.203Z,2.35
2022-11-23T22:33:49.179Z,2.70
2022-11-23T22:36:20.877Z,2.80
2022-11-23T22:38:48.654Z,2.80
2022-11-23T22:41:17.556Z,2.70
2022-11-23T22:43:45.459Z,2.90
2022-11-23T22:46:14.452Z,2.70
2022-11-23T22:48:42.933Z,2.97
2022-11-23T22:51:11.721Z,3.10
2022-11-23T22:53:44.709Z,3.30
2022-11-23T22:56:13.726Z,3.22
2022-11-23T22:58:41.576Z,2.85
2022-11-23T23:01:10.310Z,3.13
2022-11-23T23:03:38.355Z,3.10
2022-11-23T23:06:06.530Z,2.95
2022-11-23T23:08:34.171Z,3.03
2022-11-23T23:11:07.995Z,2.97
2022-11-23T23:13:36.914Z,2.67
2022-11-23T23:16:05.501Z,2.85
2022-11-23T23:18:33.163Z,2.95
2022-11-23T23:21:04.704Z,2.90
2022-11-23T23:23:33.808Z,2.53
2022-11-23T23:26:01.394Z,2.70
2022-11-23T23:28:29.133Z,2.83
2022-11-23T23:31:04.379Z,2.50
2022-11-23T23:33:33.395Z,2.15
2022-11-23T23:36:08.404Z,2.25
2022-11-23T23:38:37.163Z,2.42
2022-11-23T23:41:05.567Z,2.20
2022-11-23T23:43:33.951Z,2.13
2022-11-23T23:46:03.087Z,2.17
2022-11-23T23:48:34.952Z,1.90
2022-11-23T23:53:29.918Z,1.85
2022-11-23T23:55:58.153Z,1.88
2022-11-23T23:58:26.011Z,1.90
